sensor_id;sensor_type;location;lat;lon;timestamp;pressure;altitude;pressure_sealevel;temperature;humidity
84821;BME280;75463;50.988;11.332;2024-01-10T00:01:08;100422.03;;;-14.62;87.87
84821;BME280;75463;50.988;11.332;2024-01-10T00:03:33;100418.13;;;-14.55;88.28
84821;BME280;75463;50.988;11.332;2024-01-10T00:05:58;100408.34;;;-14.87;87.22
84821;BME280;75463;50.988;11.332;2024-01-10T00:08:24;100411.19;;;-15.17;86.81
84821;BME280;75463;50.988;11.332;2024-01-10T00:10:51;100403.25;;;-15.38;85.34
84821;BME280;75463;50.988;11.332;2024-01-10T00:13:17;100402.34;;;-15.37;87.14
84821;BME280;75463;50.988;11.332;2024-01-10T00:15:42;100400.78;;;-15.15;89.51
84821;BME280;75463;50.988;11.332;2024-01-10T00:18:08;100402.56;;;-15.03;88.88
84821;BME280;75463;50.988;11.332;2024-01-10T00:20:33;100390.28;;;-15.00;87.44
84821;BME280;75463;50.988;11.332;2024-01-10T00:22:58;100396.56;;;-15.04;88.30
84821;BME280;75463;50.988;11.332;2024-01-10T00:25:24;100389.16;;;-15.08;88.42
84821;BME280;75463;50.988;11.332;2024-01-10T00:27:49;100398.84;;;-14.87;89.14
84821;BME280;75463;50.988;11.332;2024-01-10T00:30:14;100397.09;;;-14.86;86.93
84821;BME280;75463;50.988;11.332;2024-01-10T00:32:40;100384.50;;;-14.78;90.06
84821;BME280;75463;50.988;11.332;2024-01-10T00:35:05;100381.19;;;-14.80;88.79
84821;BME280;75463;50.988;11.332;2024-01-10T00:37:31;100374.53;;;-14.83;87.91
84821;BME280;75463;50.988;11.332;2024-01-10T00:39:56;100371.94;;;-15.08;86.92
84821;BME280;75463;50.988;11.332;2024-01-10T00:42:21;100385.66;;;-15.07;89.32
84821;BME280;75463;50.988;11.332;2024-01-10T00:44:47;100378.03;;;-15.09;88.73
84821;BME280;75463;50.988;11.332;2024-01-10T00:47:12;100386.28;;;-15.16;88.65
84821;BME280;75463;50.988;11.332;2024-01-10T00:49:37;100389.78;;;-15.05;88.54
84821;BME280;75463;50.988;11.332;2024-01-10T00:52:03;100384.41;;;-14.89;88.44
84821;BME280;75463;50.988;11.332;2024-01-10T00:54:28;100381.41;;;-14.83;88.70
84821;BME280;75463;50.988;11.332;2024-01-10T00:56:53;100383.66;;;-14.67;88.02
84821;BME280;75463;50.988;11.332;2024-01-10T00:59:19;100386.88;;;-14.76;87.07
84821;BME280;75463;50.988;11.332;2024-01-10T01:01:44;100387.41;;;-14.95;87.25
84821;BME280;75463;50.988;11.332;2024-01-10T01:04:10;100380.69;;;-14.85;86.69
84821;BME280;75463;50.988;11.332;2024-01-10T01:06:35;100388.97;;;-14.93;86.93
84821;BME280;75463;50.988;11.332;2024-01-10T01:09:00;100391.41;;;-15.04;86.34
84821;BME280;75463;50.988;11.332;2024-01-10T01:11:26;100390.50;;;-15.03;87.08
84821;BME280;75463;50.988;11.332;2024-01-10T01:13:51;100404.84;;;-14.99;86.32
84821;BME280;75463;50.988;11.332;2024-01-10T01:16:16;100403.88;;;-14.98;86.59
84821;BME280;75463;50.988;11.332;2024-01-10T01:18:42;100402.25;;;-14.99;87.67
84821;BME280;75463;50.988;11.332;2024-01-10T01:21:11;100403.56;;;-14.93;87.62
84821;BME280;75463;50.988;11.332;2024-01-10T01:23:36;100397.22;;;-15.00;86.78
84821;BME280;75463;50.988;11.332;2024-01-10T01:26:02;100397.81;;;-14.97;87.66
84821;BME280;75463;50.988;11.332;2024-01-10T01:28:29;100400.59;;;-15.00;87.47
84821;BME280;75463;50.988;11.332;2024-01-10T01:30:54;100402.75;;;-15.06;86.86
84821;BME280;75463;50.988;11.332;2024-01-10T01:33:19;100401.97;;;-15.19;86.89
84821;BME280;75463;50.988;11.332;2024-01-10T01:35:45;100391.53;;;-15.30;87.37
84821;BME280;75463;50.988;11.332;2024-01-10T01:38:10;100397.84;;;-15.22;88.71
84821;BME280;75463;50.988;11.332;2024-01-10T01:40:35;100387.38;;;-15.08;87.83
84821;BME280;75463;50.988;11.332;2024-01-10T01:43:01;100389.88;;;-14.94;87.43
84821;BME280;75463;50.988;11.332;2024-01-10T01:45:26;100390.16;;;-15.11;85.54
84821;BME280;75463;50.988;11.332;2024-01-10T01:47:51;100397.31;;;-15.02;87.71
84821;BME280;75463;50.988;11.332;2024-01-10T01:50:17;100391.22;;;-15.01;86.60
84821;BME280;75463;50.988;11.332;2024-01-10T01:52:43;100394.53;;;-15.24;86.47
84821;BME280;75463;50.988;11.332;2024-01-10T01:55:09;100377.63;;;-15.27;86.97
84821;BME280;75463;50.988;11.332;2024-01-10T01:57:37;100366.16;;;-15.48;86.42
84821;BME280;75463;50.988;11.332;2024-01-10T02:00:03;100367.78;;;-15.60;85.50
84821;BME280;75463;50.988;11.332;2024-01-10T02:02:30;100360.25;;;-15.63;85.96
84821;BME280;75463;50.988;11.332;2024-01-10T02:04:56;100375.72;;;-15.63;86.10
84821;BME280;75463;50.988;11.332;2024-01-10T02:07:22;100361.41;;;-15.54;87.59
84821;BME280;75463;50.988;11.332;2024-01-10T02:09:47;100361.97;;;-15.49;87.86
84821;BME280;75463;50.988;11.332;2024-01-10T02:12:13;100373.72;;;-15.33;88.43
84821;BME280;75463;50.988;11.332;2024-01-10T02:14:38;100363.38;;;-15.08;89.58
84821;BME280;75463;50.988;11.332;2024-01-10T02:17:04;100355.13;;;-14.88;88.32
84821;BME280;75463;50.988;11.332;2024-01-10T02:19:30;100347.88;;;-14.71;87.45
84821;BME280;75463;50.988;11.332;2024-01-10T02:21:57;100353.25;;;-14.74;86.87
84821;BME280;75463;50.988;11.332;2024-01-10T02:24:23;100342.78;;;-14.96;85.40
84821;BME280;75463;50.988;11.332;2024-01-10T02:26:48;100340.81;;;-15.05;86.27
84821;BME280;75463;50.988;11.332;2024-01-10T02:29:15;100326.28;;;-15.06;87.06
84821;BME280;75463;50.988;11.332;2024-01-10T02:31:40;100331.66;;;-15.09;87.05
84821;BME280;75463;50.988;11.332;2024-01-10T02:34:05;100339.78;;;-15.15;86.37
84821;BME280;75463;50.988;11.332;2024-01-10T02:36:31;100335.94;;;-15.09;86.87
84821;BME280;75463;50.988;11.332;2024-01-10T02:38:56;100344.81;;;-15.01;86.94
84821;BME280;75463;50.988;11.332;2024-01-10T02:41:21;100345.22;;;-14.82;86.76
84821;BME280;75463;50.988;11.332;2024-01-10T02:43:47;100344.06;;;-14.66;86.41
84821;BME280;75463;50.988;11.332;2024-01-10T02:46:12;100348.00;;;-14.85;85.35
84821;BME280;75463;50.988;11.332;2024-01-10T02:48:37;100358.72;;;-14.91;87.01
84821;BME280;75463;50.988;11.332;2024-01-10T02:51:03;100348.84;;;-14.97;85.47
84821;BME280;75463;50.988;11.332;2024-01-10T02:53:28;100344.19;;;-14.92;85.95
84821;BME280;75463;50.988;11.332;2024-01-10T02:55:55;100338.97;;;-15.03;86.31
84821;BME280;75463;50.988;11.332;2024-01-10T02:58:20;100342.81;;;-15.33;84.85
84821;BME280;75463;50.988;11.332;2024-01-10T03:00:46;100332.69;;;-15.48;86.11
84821;BME280;75463;50.988;11.332;2024-01-10T03:03:12;100338.25;;;-15.54;86.01
84821;BME280;75463;50.988;11.332;2024-01-10T03:05:37;100342.75;;;-15.70;84.98
84821;BME280;75463;50.988;11.332;2024-01-10T03:08:02;100348.91;;;-15.73;86.79
84821;BME280;75463;50.988;11.332;2024-01-10T03:10:29;100354.50;;;-15.54;87.41
84821;BME280;75463;50.988;11.332;2024-01-10T03:12:54;100342.38;;;-15.39;88.40
84821;BME280;75463;50.988;11.332;2024-01-10T03:15:19;100346.47;;;-15.12;87.43
84821;BME280;75463;50.988;11.332;2024-01-10T03:17:45;100331.22;;;-15.03;88.01
84821;BME280;75463;50.988;11.332;2024-01-10T03:20:11;100336.16;;;-15.00;86.32
84821;BME280;75463;50.988;11.332;2024-01-10T03:22:36;100331.50;;;-14.95;87.24
84821;BME280;75463;50.988;11.332;2024-01-10T03:25:02;100321.91;;;-14.80;86.72
84821;BME280;75463;50.988;11.332;2024-01-10T03:27:28;100328.28;;;-14.74;87.18
84821;BME280;75463;50.988;11.332;2024-01-10T03:29:53;100316.13;;;-14.72;86.49
84821;BME280;75463;50.988;11.332;2024-01-10T03:32:18;100322.53;;;-14.77;87.73
84821;BME280;75463;50.988;11.332;2024-01-10T03:34:43;100324.09;;;-14.75;85.89
84821;BME280;75463;50.988;11.332;2024-01-10T03:37:09;100329.47;;;-14.90;86.10
84821;BME280;75463;50.988;11.332;2024-01-10T03:39:34;100322.03;;;-15.07;85.93
84821;BME280;75463;50.988;11.332;2024-01-10T03:41:59;100326.97;;;-15.04;87.61
84821;BME280;75463;50.988;11.332;2024-01-10T03:44:26;100317.22;;;-14.99;85.85
84821;BME280;75463;50.988;11.332;2024-01-10T03:46:52;100319.88;;;-15.00;87.21
84821;BME280;75463;50.988;11.332;2024-01-10T03:49:17;100320.00;;;-15.02;86.95
84821;BME280;75463;50.988;11.332;2024-01-10T03:51:42;100315.53;;;-14.87;88.26
84821;BME280;75463;50.988;11.332;2024-01-10T03:54:08;100312.53;;;-14.94;86.82
84821;BME280;75463;50.988;11.332;2024-01-10T03:56:33;100314.91;;;-14.91;86.92
84821;BME280;75463;50.988;11.332;2024-01-10T03:58:59;100314.69;;;-14.88;86.22
84821;BME280;75463;50.988;11.332;2024-01-10T04:01:26;100313.06;;;-14.89;86.87
84821;BME280;75463;50.988;11.332;2024-01-10T04:03:51;100303.47;;;-14.99;86.43
84821;BME280;75463;50.988;11.332;2024-01-10T04:06:17;100308.72;;;-15.01;86.70
84821;BME280;75463;50.988;11.332;2024-01-10T04:08:42;100310.50;;;-15.14;86.22
84821;BME280;75463;50.988;11.332;2024-01-10T04:11:08;100309.81;;;-15.28;85.26
84821;BME280;75463;50.988;11.332;2024-01-10T04:13:34;100310.03;;;-15.31;86.10
84821;BME280;75463;50.988;11.332;2024-01-10T04:15:59;100310.41;;;-15.00;88.08
84821;BME280;75463;50.988;11.332;2024-01-10T04:18:24;100308.94;;;-14.91;88.61
84821;BME280;75463;50.988;11.332;2024-01-10T04:20:50;100311.72;;;-14.94;87.07
84821;BME280;75463;50.988;11.332;2024-01-10T04:23:15;100311.53;;;-15.04;86.88
84821;BME280;75463;50.988;11.332;2024-01-10T04:25:40;100308.09;;;-14.92;87.08
84821;BME280;75463;50.988;11.332;2024-01-10T04:28:06;100310.19;;;-14.97;87.01
84821;BME280;75463;50.988;11.332;2024-01-10T04:30:31;100308.66;;;-15.12;87.20
84821;BME280;75463;50.988;11.332;2024-01-10T04:32:57;100311.78;;;-15.19;87.16
84821;BME280;75463;50.988;11.332;2024-01-10T04:35:22;100312.72;;;-15.20;86.83
84821;BME280;75463;50.988;11.332;2024-01-10T04:37:47;100303.16;;;-14.95;87.38
84821;BME280;75463;50.988;11.332;2024-01-10T04:40:15;100303.78;;;-15.04;87.32
84821;BME280;75463;50.988;11.332;2024-01-10T04:42:40;100312.66;;;-14.95;87.76
84821;BME280;75463;50.988;11.332;2024-01-10T04:45:06;100310.59;;;-15.03;86.17
84821;BME280;75463;50.988;11.332;2024-01-10T04:47:32;100312.88;;;-14.98;85.79
84821;BME280;75463;50.988;11.332;2024-01-10T04:49:57;100309.91;;;-15.05;87.08
84821;BME280;75463;50.988;11.332;2024-01-10T04:52:23;100305.84;;;-14.96;87.66
84821;BME280;75463;50.988;11.332;2024-01-10T04:54:48;100311.03;;;-15.09;87.63
84821;BME280;75463;50.988;11.332;2024-01-10T04:57:15;100307.09;;;-15.14;86.48
84821;BME280;75463;50.988;11.332;2024-01-10T04:59:41;100305.31;;;-15.25;87.47
84821;BME280;75463;50.988;11.332;2024-01-10T05:02:06;100302.41;;;-15.32;87.56
84821;BME280;75463;50.988;11.332;2024-01-10T05:04:32;100305.81;;;-15.44;85.61
84821;BME280;75463;50.988;11.332;2024-01-10T05:06:57;100309.22;;;-15.56;86.17
84821;BME280;75463;50.988;11.332;2024-01-10T05:09:22;100307.16;;;-15.64;85.63
84821;BME280;75463;50.988;11.332;2024-01-10T05:11:48;100305.47;;;-15.65;86.40
84821;BME280;75463;50.988;11.332;2024-01-10T05:14:16;100301.91;;;-15.37;89.44
84821;BME280;75463;50.988;11.332;2024-01-10T05:16:41;100305.25;;;-15.12;87.29
84821;BME280;75463;50.988;11.332;2024-01-10T05:19:06;100309.06;;;-14.93;88.18
84821;BME280;75463;50.988;11.332;2024-01-10T05:21:32;100301.00;;;-14.88;88.63
84821;BME280;75463;50.988;11.332;2024-01-10T05:23:57;100304.81;;;-14.94;88.94
84821;BME280;75463;50.988;11.332;2024-01-10T05:26:23;100310.78;;;-14.93;87.17
84821;BME280;75463;50.988;11.332;2024-01-10T05:28:48;100311.00;;;-14.84;87.82
84821;BME280;75463;50.988;11.332;2024-01-10T05:31:13;100309.44;;;-14.74;87.75
84821;BME280;75463;50.988;11.332;2024-01-10T05:33:39;100310.34;;;-14.75;88.85
84821;BME280;75463;50.988;11.332;2024-01-10T05:36:04;100305.72;;;-14.82;87.16
84821;BME280;75463;50.988;11.332;2024-01-10T05:38:30;100308.94;;;-14.91;87.62
84821;BME280;75463;50.988;11.332;2024-01-10T05:40:55;100305.94;;;-14.98;86.59
84821;BME280;75463;50.988;11.332;2024-01-10T05:43:20;100306.66;;;-14.83;86.95
84821;BME280;75463;50.988;11.332;2024-01-10T05:45:46;100301.47;;;-14.71;87.58
84821;BME280;75463;50.988;11.332;2024-01-10T05:48:12;100304.13;;;-14.60;87.25
84821;BME280;75463;50.988;11.332;2024-01-10T05:50:37;100305.63;;;-14.45;86.66
84821;BME280;75463;50.988;11.332;2024-01-10T05:53:04;100304.38;;;-14.40;86.59
84821;BME280;75463;50.988;11.332;2024-01-10T05:55:29;100313.72;;;-14.27;87.00
84821;BME280;75463;50.988;11.332;2024-01-10T05:57:55;100304.50;;;-14.18;86.33
84821;BME280;75463;50.988;11.332;2024-01-10T06:00:20;100307.22;;;-14.09;86.84
84821;BME280;75463;50.988;11.332;2024-01-10T06:02:46;100301.84;;;-14.06;86.49
84821;BME280;75463;50.988;11.332;2024-01-10T06:05:12;100292.69;;;-13.99;87.47
84821;BME280;75463;50.988;11.332;2024-01-10T06:07:38;100303.19;;;-13.89;86.10
84821;BME280;75463;50.988;11.332;2024-01-10T06:10:05;100307.91;;;-13.83;86.50
84821;BME280;75463;50.988;11.332;2024-01-10T06:12:30;100308.38;;;-13.79;86.87
84821;BME280;75463;50.988;11.332;2024-01-10T06:14:56;100297.28;;;-13.68;88.25
84821;BME280;75463;50.988;11.332;2024-01-10T06:17:22;100304.56;;;-13.62;87.37
84821;BME280;75463;50.988;11.332;2024-01-10T06:19:48;100299.88;;;-13.57;86.98
84821;BME280;75463;50.988;11.332;2024-01-10T06:22:14;100296.13;;;-13.53;87.82
84821;BME280;75463;50.988;11.332;2024-01-10T06:24:39;100302.50;;;-13.46;88.31
84821;BME280;75463;50.988;11.332;2024-01-10T06:27:06;100301.22;;;-13.30;86.93
84821;BME280;75463;50.988;11.332;2024-01-10T06:29:31;100296.31;;;-13.22;88.69
84821;BME280;75463;50.988;11.332;2024-01-10T06:31:57;100299.97;;;-13.14;87.70
84821;BME280;75463;50.988;11.332;2024-01-10T06:34:23;100284.78;;;-13.07;87.55
84821;BME280;75463;50.988;11.332;2024-01-10T06:36:48;100297.25;;;-13.01;88.41
84821;BME280;75463;50.988;11.332;2024-01-10T06:39:13;100298.50;;;-12.74;88.50
84821;BME280;75463;50.988;11.332;2024-01-10T06:41:40;100298.94;;;-12.58;86.76
84821;BME280;75463;50.988;11.332;2024-01-10T06:44:05;100295.88;;;-12.41;87.38
84821;BME280;75463;50.988;11.332;2024-01-10T06:46:31;100295.38;;;-12.35;87.29
84821;BME280;75463;50.988;11.332;2024-01-10T06:48:57;100299.16;;;-12.39;86.75
84821;BME280;75463;50.988;11.332;2024-01-10T06:51:24;100288.03;;;-12.09;86.64
84821;BME280;75463;50.988;11.332;2024-01-10T06:53:49;100295.63;;;-12.28;85.69
84821;BME280;75463;50.988;11.332;2024-01-10T06:56:14;100302.91;;;-12.22;86.39
84821;BME280;75463;50.988;11.332;2024-01-10T06:58:40;100301.25;;;-12.23;86.20
84821;BME280;75463;50.988;11.332;2024-01-10T07:01:11;100308.81;;;-12.31;87.12
84821;BME280;75463;50.988;11.332;2024-01-10T07:03:38;100307.97;;;-12.31;87.12
84821;BME280;75463;50.988;11.332;2024-01-10T07:06:04;100300.75;;;-12.17;87.33
84821;BME280;75463;50.988;11.332;2024-01-10T07:08:29;100309.44;;;-12.07;87.20
84821;BME280;75463;50.988;11.332;2024-01-10T07:10:56;100301.63;;;-11.96;86.92
84821;BME280;75463;50.988;11.332;2024-01-10T07:13:22;100308.25;;;-12.03;86.94
84821;BME280;75463;50.988;11.332;2024-01-10T07:15:47;100312.41;;;-12.11;87.60
84821;BME280;75463;50.988;11.332;2024-01-10T07:18:12;100312.16;;;-12.19;86.93
84821;BME280;75463;50.988;11.332;2024-01-10T07:20:38;100316.22;;;-12.26;87.48
84821;BME280;75463;50.988;11.332;2024-01-10T07:23:03;100305.13;;;-12.28;86.95
84821;BME280;75463;50.988;11.332;2024-01-10T07:25:29;100318.44;;;-12.22;87.45
84821;BME280;75463;50.988;11.332;2024-01-10T07:27:54;100318.44;;;-12.22;87.89
84821;BME280;75463;50.988;11.332;2024-01-10T07:30:22;100324.41;;;-12.21;87.46
84821;BME280;75463;50.988;11.332;2024-01-10T07:32:47;100317.22;;;-12.18;88.35
84821;BME280;75463;50.988;11.332;2024-01-10T07:35:13;100318.13;;;-11.97;89.59
84821;BME280;75463;50.988;11.332;2024-01-10T07:37:40;100324.09;;;-11.85;88.56
84821;BME280;75463;50.988;11.332;2024-01-10T07:40:07;100327.91;;;-11.69;88.44
84821;BME280;75463;50.988;11.332;2024-01-10T07:42:33;100312.59;;;-11.52;88.94
84821;BME280;75463;50.988;11.332;2024-01-10T07:44:59;100315.06;;;-11.50;88.66
84821;BME280;75463;50.988;11.332;2024-01-10T07:47:25;100313.72;;;-11.54;89.40
84821;BME280;75463;50.988;11.332;2024-01-10T07:49:50;100327.91;;;-11.49;88.77
84821;BME280;75463;50.988;11.332;2024-01-10T07:52:16;100323.22;;;-11.35;89.03
84821;BME280;75463;50.988;11.332;2024-01-10T07:54:42;100321.75;;;-11.28;88.65
84821;BME280;75463;50.988;11.332;2024-01-10T07:57:07;100321.75;;;-11.28;89.41
84821;BME280;75463;50.988;11.332;2024-01-10T07:59:33;100308.50;;;-11.34;88.98
84821;BME280;75463;50.988;11.332;2024-01-10T08:02:00;100315.38;;;-11.24;88.36
84821;BME280;75463;50.988;11.332;2024-01-10T08:04:28;100322.25;;;-11.13;88.46
84821;BME280;75463;50.988;11.332;2024-01-10T08:06:54;100321.50;;;-11.25;87.94
84821;BME280;75463;50.988;11.332;2024-01-10T08:09:21;100320.94;;;-11.08;89.19
84821;BME280;75463;50.988;11.332;2024-01-10T08:11:46;100328.50;;;-11.16;88.11
84821;BME280;75463;50.988;11.332;2024-01-10T08:14:12;100318.72;;;-11.12;88.79
84821;BME280;75463;50.988;11.332;2024-01-10T08:16:38;100316.19;;;-11.23;89.56
84821;BME280;75463;50.988;11.332;2024-01-10T08:19:03;100324.97;;;-11.15;89.01
84821;BME280;75463;50.988;11.332;2024-01-10T08:21:29;100321.75;;;-11.07;88.98
84821;BME280;75463;50.988;11.332;2024-01-10T08:23:54;100320.75;;;-10.86;88.49
84821;BME280;75463;50.988;11.332;2024-01-10T08:26:19;100319.75;;;-10.94;88.43
84821;BME280;75463;50.988;11.332;2024-01-10T08:28:45;100319.81;;;-10.85;87.93
84821;BME280;75463;50.988;11.332;2024-01-10T08:31:10;100320.50;;;-10.83;88.65
84821;BME280;75463;50.988;11.332;2024-01-10T08:33:37;100322.31;;;-10.74;87.80
84821;BME280;75463;50.988;11.332;2024-01-10T08:36:04;100331.75;;;-10.73;88.14
84821;BME280;75463;50.988;11.332;2024-01-10T08:38:30;100321.47;;;-10.84;88.36
84821;BME280;75463;50.988;11.332;2024-01-10T08:40:56;100335.47;;;-10.66;88.17
84821;BME280;75463;50.988;11.332;2024-01-10T08:43:21;100323.09;;;-10.53;87.74
84821;BME280;75463;50.988;11.332;2024-01-10T08:45:46;100324.50;;;-10.49;87.26
84821;BME280;75463;50.988;11.332;2024-01-10T08:48:12;100318.06;;;-10.45;88.03
84821;BME280;75463;50.988;11.332;2024-01-10T08:50:38;100317.81;;;-10.42;87.00
84821;BME280;75463;50.988;11.332;2024-01-10T08:53:03;100331.75;;;-10.43;87.19
84821;BME280;75463;50.988;11.332;2024-01-10T08:55:31;100323.56;;;-10.39;88.04
84821;BME280;75463;50.988;11.332;2024-01-10T08:57:56;100326.81;;;-10.37;86.66
84821;BME280;75463;50.988;11.332;2024-01-10T09:00:22;100336.31;;;-10.27;86.82
84821;BME280;75463;50.988;11.332;2024-01-10T09:02:49;100332.75;;;-10.26;86.86
84821;BME280;75463;50.988;11.332;2024-01-10T09:05:15;100327.84;;;-10.19;86.65
84821;BME280;75463;50.988;11.332;2024-01-10T09:07:40;100325.53;;;-10.13;86.77
84821;BME280;75463;50.988;11.332;2024-01-10T09:10:07;100313.75;;;-10.17;86.67
84821;BME280;75463;50.988;11.332;2024-01-10T09:12:33;100317.59;;;-10.11;87.17
84821;BME280;75463;50.988;11.332;2024-01-10T09:14:58;100317.31;;;-10.08;86.94
84821;BME280;75463;50.988;11.332;2024-01-10T09:17:24;100312.16;;;-9.99;86.77
84821;BME280;75463;50.988;11.332;2024-01-10T09:19:49;100306.91;;;-9.90;85.98
84821;BME280;75463;50.988;11.332;2024-01-10T09:22:14;100314.63;;;-9.97;86.25
84821;BME280;75463;50.988;11.332;2024-01-10T09:24:39;100308.03;;;-9.92;85.93
84821;BME280;75463;50.988;11.332;2024-01-10T09:27:05;100315.00;;;-9.92;85.93
84821;BME280;75463;50.988;11.332;2024-01-10T09:29:30;100306.78;;;-10.07;86.74
84821;BME280;75463;50.988;11.332;2024-01-10T09:31:56;100305.75;;;-9.95;86.41
84821;BME280;75463;50.988;11.332;2024-01-10T09:34:22;100306.25;;;-10.01;86.27
84821;BME280;75463;50.988;11.332;2024-01-10T09:36:47;100305.16;;;-9.80;86.09
84821;BME280;75463;50.988;11.332;2024-01-10T09:39:13;100310.22;;;-9.88;86.19
84821;BME280;75463;50.988;11.332;2024-01-10T09:41:46;100314.34;;;-9.66;85.72
84821;BME280;75463;50.988;11.332;2024-01-10T09:44:13;100299.13;;;-9.61;85.63
84821;BME280;75463;50.988;11.332;2024-01-10T09:46:40;100300.06;;;-9.43;85.67
84821;BME280;75463;50.988;11.332;2024-01-10T09:49:08;100299.38;;;-9.27;84.66
84821;BME280;75463;50.988;11.332;2024-01-10T09:51:34;100303.31;;;-9.13;84.22
84821;BME280;75463;50.988;11.332;2024-01-10T09:54:02;100294.34;;;-8.83;83.26
84821;BME280;75463;50.988;11.332;2024-01-10T09:56:30;100304.31;;;-8.78;82.26
84821;BME280;75463;50.988;11.332;2024-01-10T09:58:55;100298.31;;;-8.88;83.29
84821;BME280;75463;50.988;11.332;2024-01-10T10:01:23;100294.63;;;-8.95;83.96
84821;BME280;75463;50.988;11.332;2024-01-10T10:03:50;100290.50;;;-8.79;83.25
84821;BME280;75463;50.988;11.332;2024-01-10T10:06:15;100287.00;;;-8.43;82.37
84821;BME280;75463;50.988;11.332;2024-01-10T10:08:41;100287.66;;;-8.14;82.38
84821;BME280;75463;50.988;11.332;2024-01-10T10:11:11;100284.25;;;-7.80;80.06
84821;BME280;75463;50.988;11.332;2024-01-10T10:13:38;100283.88;;;-7.50;81.35
84821;BME280;75463;50.988;11.332;2024-01-10T10:16:07;100297.13;;;-7.61;80.06
84821;BME280;75463;50.988;11.332;2024-01-10T10:18:34;100286.34;;;-7.66;80.27
84821;BME280;75463;50.988;11.332;2024-01-10T10:21:12;100291.63;;;-7.58;79.92
84821;BME280;75463;50.988;11.332;2024-01-10T10:23:40;100288.81;;;-7.82;80.66
84821;BME280;75463;50.988;11.332;2024-01-10T10:26:16;100284.63;;;-8.10;81.23
84821;BME280;75463;50.988;11.332;2024-01-10T10:28:50;100276.56;;;-7.99;79.84
84821;BME280;75463;50.988;11.332;2024-01-10T10:31:18;100282.28;;;-8.30;80.22
84821;BME280;75463;50.988;11.332;2024-01-10T10:33:44;100282.72;;;-8.61;82.08
84821;BME280;75463;50.988;11.332;2024-01-10T10:36:09;100272.81;;;-8.85;83.90
84821;BME280;75463;50.988;11.332;2024-01-10T10:38:35;100269.16;;;-8.65;81.93
84821;BME280;75463;50.988;11.332;2024-01-10T10:41:04;100265.69;;;-8.56;82.51
84821;BME280;75463;50.988;11.332;2024-01-10T10:43:33;100263.97;;;-8.21;81.78
84821;BME280;75463;50.988;11.332;2024-01-10T10:46:00;100247.03;;;-6.97;79.27
84821;BME280;75463;50.988;11.332;2024-01-10T10:48:27;100248.41;;;-5.71;76.02
84821;BME280;75463;50.988;11.332;2024-01-10T10:51:17;100247.94;;;-4.73;72.00
84821;BME280;75463;50.988;11.332;2024-01-10T10:53:43;100261.31;;;-4.52;72.60
84821;BME280;75463;50.988;11.332;2024-01-10T10:56:11;100239.59;;;-3.78;70.28
84821;BME280;75463;50.988;11.332;2024-01-10T10:58:41;100246.88;;;-3.88;70.42
84821;BME280;75463;50.988;11.332;2024-01-10T11:01:08;100242.53;;;-3.73;72.00
84821;BME280;75463;50.988;11.332;2024-01-10T11:03:35;100243.44;;;-3.44;70.48
84821;BME280;75463;50.988;11.332;2024-01-10T11:06:05;100242.75;;;-3.60;71.25
84821;BME280;75463;50.988;11.332;2024-01-10T11:08:52;100243.50;;;-4.27;70.61
84821;BME280;75463;50.988;11.332;2024-01-10T11:14:09;100255.09;;;-5.53;72.61
84821;BME280;75463;50.988;11.332;2024-01-10T11:17:18;100243.81;;;-5.38;73.16
84821;BME280;75463;50.988;11.332;2024-01-10T11:20:16;100240.19;;;-5.21;71.62
84821;BME280;75463;50.988;11.332;2024-01-10T11:22:57;100237.19;;;-4.94;70.31
84821;BME280;75463;50.988;11.332;2024-01-10T11:25:27;100236.41;;;-5.10;71.51
84821;BME280;75463;50.988;11.332;2024-01-10T11:27:55;100241.97;;;-5.13;72.67
84821;BME280;75463;50.988;11.332;2024-01-10T11:30:50;100233.66;;;-5.17;73.16
84821;BME280;75463;50.988;11.332;2024-01-10T11:33:32;100234.16;;;-5.53;74.36
84821;BME280;75463;50.988;11.332;2024-01-10T11:36:15;100233.44;;;-4.99;72.24
84821;BME280;75463;50.988;11.332;2024-01-10T11:41:28;100224.56;;;-4.91;71.26
84821;BME280;75463;50.988;11.332;2024-01-10T11:46:48;100233.66;;;-5.41;73.74
84821;BME280;75463;50.988;11.332;2024-01-10T11:49:16;100222.59;;;-4.89;73.38
84821;BME280;75463;50.988;11.332;2024-01-10T11:51:42;100221.31;;;-4.54;71.79
84821;BME280;75463;50.988;11.332;2024-01-10T11:54:07;100218.78;;;-4.70;71.17
84821;BME280;75463;50.988;11.332;2024-01-10T11:56:40;100218.88;;;-4.64;71.70
84821;BME280;75463;50.988;11.332;2024-01-10T11:59:10;100216.19;;;-4.86;72.47
84821;BME280;75463;50.988;11.332;2024-01-10T12:01:40;100217.13;;;-5.25;73.42
84821;BME280;75463;50.988;11.332;2024-01-10T12:04:06;100217.28;;;-5.35;71.99
84821;BME280;75463;50.988;11.332;2024-01-10T12:06:34;100208.22;;;-5.08;72.41
84821;BME280;75463;50.988;11.332;2024-01-10T12:09:00;100194.06;;;-5.46;72.53
84821;BME280;75463;50.988;11.332;2024-01-10T12:11:29;100201.66;;;-5.74;76.32
84821;BME280;75463;50.988;11.332;2024-01-10T12:13:55;100198.03;;;-5.81;75.65
84821;BME280;75463;50.988;11.332;2024-01-10T12:16:23;100196.81;;;-6.26;76.33
84821;BME280;75463;50.988;11.332;2024-01-10T12:18:48;100197.19;;;-6.70;77.14
84821;BME280;75463;50.988;11.332;2024-01-10T12:21:13;100200.09;;;-6.81;78.03
84821;BME280;75463;50.988;11.332;2024-01-10T12:23:39;100211.50;;;-6.82;77.83
84821;BME280;75463;50.988;11.332;2024-01-10T12:26:09;100203.97;;;-7.18;78.71
84821;BME280;75463;50.988;11.332;2024-01-10T12:28:38;100201.94;;;-7.32;80.16
84821;BME280;75463;50.988;11.332;2024-01-10T12:31:04;100202.34;;;-7.44;80.12
84821;BME280;75463;50.988;11.332;2024-01-10T12:33:33;100199.28;;;-7.40;80.59
84821;BME280;75463;50.988;11.332;2024-01-10T12:36:06;100202.44;;;-7.29;79.86
84821;BME280;75463;50.988;11.332;2024-01-10T12:38:32;100207.66;;;-7.54;80.90